Time;durP1;ratioP1;P1;durP2;ratioP2;P2;SDS_P1;SDS_P2;PMS_P1;PMS_P2;Temp;Humidity;BMP_temperature;BMP_pressure;BME280_temperature;BME280_humidity;BME280_pressure;Samples;Min_cycle;Max_cycle;Signal;HPM_P1;HPM_P2
2022/11/08 00:03:49;;;;;;;3.28;1.55;;;13.30;99.90;;;;;;5138161;27;20046;-70
2022/11/08 00:14:27;;;;;;;4.72;1.88;;;13.30;99.90;;;;;;5154358;27;20065;-70
2022/11/08 00:16:53;;;;;;;6.32;2.17;;;13.30;99.90;;;;;;5154517;27;20046;-69
2022/11/08 00:19:19;;;;;;;3.33;1.70;;;13.30;99.90;;;;;;5154540;27;20048;-70
2022/11/08 00:21:44;;;;;;;3.28;1.55;;;13.30;99.90;;;;;;5154187;27;20050;-70
2022/11/08 00:24:10;;;;;;;6.03;1.85;;;13.30;99.90;;;;;;5135553;27;20057;-70
2022/11/08 00:26:36;;;;;;;4.43;1.60;;;13.30;99.90;;;;;;5154136;27;20046;-70
2022/11/08 00:29:01;;;;;;;4.63;1.52;;;13.30;99.90;;;;;;5153904;27;20455;-70
2022/11/08 00:31:27;;;;;;;6.20;1.75;;;13.20;99.90;;;;;;5153851;27;20054;-70
2022/11/08 00:33:52;;;;;;;5.85;1.85;;;13.20;99.90;;;;;;5153795;27;20125;-70
2022/11/08 00:36:18;;;;;;;5.63;1.85;;;13.20;99.90;;;;;;5153943;27;20130;-70
2022/11/08 00:38:44;;;;;;;7.85;2.17;;;13.20;99.90;;;;;;5151591;27;20087;-70
2022/11/08 00:41:10;;;;;;;7.70;2.17;;;13.20;99.90;;;;;;5153486;27;20054;-70
2022/11/08 00:43:36;;;;;;;5.05;1.70;;;13.20;99.90;;;;;;5153637;27;20088;-70
2022/11/08 00:46:01;;;;;;;5.25;1.88;;;13.10;99.90;;;;;;5153516;27;20117;-70
2022/11/08 00:48:27;;;;;;;5.15;1.60;;;13.10;99.90;;;;;;5135188;27;20046;-70
2022/11/08 00:50:53;;;;;;;4.43;1.73;;;13.00;99.90;;;;;;5153829;27;20475;-70
2022/11/08 00:53:18;;;;;;;5.75;1.70;;;13.10;99.90;;;;;;5153694;27;20599;-70
2022/11/08 00:55:44;;;;;;;6.07;1.80;;;13.00;99.90;;;;;;5153543;27;20043;-69
2022/11/08 00:58:09;;;;;;;3.92;1.55;;;13.00;99.90;;;;;;5153528;27;20043;-70
2022/11/08 01:00:35;;;;;;;5.13;1.83;;;12.90;99.90;;;;;;5134848;27;20494;-70
2022/11/08 01:03:19;;;;;;;4.70;1.63;;;12.90;99.90;;;;;;5134489;27;20429;-70
2022/11/08 01:05:45;;;;;;;5.30;1.77;;;12.90;99.90;;;;;;5135096;27;20569;-70
2022/11/08 01:08:12;;;;;;;5.28;1.63;;;12.80;99.90;;;;;;5134910;27;20050;-70
2022/11/08 01:10:50;;;;;;;5.15;1.60;;;12.80;99.90;;;;;;5153653;27;20135;-70
2022/11/08 01:13:16;;;;;;;6.18;2.03;;;12.80;99.90;;;;;;5153240;27;20051;-69
2022/11/08 01:15:44;;;;;;;4.30;1.80;;;12.80;99.90;;;;;;5153362;27;20050;-69
2022/11/08 01:18:11;;;;;;;3.80;1.65;;;12.70;99.90;;;;;;5153377;27;20047;-70
2022/11/08 01:20:38;;;;;;;2.72;1.27;;;12.70;99.90;;;;;;5153482;27;20062;-70
2022/11/08 01:23:04;;;;;;;4.97;1.50;;;12.70;99.90;;;;;;5134829;27;20075;-70
2022/11/08 01:25:30;;;;;;;6.90;1.58;;;12.60;99.90;;;;;;5153168;27;20055;-70
2022/11/08 01:27:56;;;;;;;5.53;2.03;;;12.70;99.90;;;;;;5152987;27;20057;-70
2022/11/08 01:30:22;;;;;;;5.75;1.77;;;12.70;99.90;;;;;;5152710;27;20530;-70
2022/11/08 01:32:47;;;;;;;5.57;1.85;;;12.70;99.90;;;;;;5152719;27;20137;-70
2022/11/08 01:35:13;;;;;;;7.65;1.70;;;12.60;99.90;;;;;;5153434;27;20043;-70
2022/11/08 01:37:39;;;;;;;4.90;1.60;;;12.60;99.90;;;;;;5152810;27;20410;-69
2022/11/08 01:40:05;;;;;;;3.78;1.55;;;12.50;99.90;;;;;;5152941;27;20050;-70
2022/11/08 01:42:32;;;;;;;5.03;1.80;;;12.50;99.90;;;;;;5152829;27;20099;-69
2022/11/08 01:45:06;;;;;;;6.63;2.15;;;12.50;99.90;;;;;;5134703;27;20046;-69
2022/11/08 01:47:32;;;;;;;3.95;1.50;;;12.50;99.90;;;;;;5152972;27;20050;-69
2022/11/08 01:50:08;;;;;;;3.88;2.00;;;12.40;99.90;;;;;;5152905;27;20046;-69
2022/11/08 01:52:42;;;;;;;4.07;1.77;;;12.40;99.90;;;;;;5134387;27;20049;-70
2022/11/08 01:55:37;;;;;;;4.35;1.52;;;12.40;99.90;;;;;;5134593;27;20061;-70
2022/11/08 01:58:15;;;;;;;5.40;1.90;;;12.50;99.90;;;;;;5127797;27;20449;-69
2022/11/08 02:00:41;;;;;;;6.30;1.63;;;12.40;99.90;;;;;;5152814;27;20424;-70
2022/11/08 02:03:11;;;;;;;3.60;1.67;;;12.40;99.90;;;;;;5152248;27;20159;-69
2022/11/08 02:05:38;;;;;;;5.70;1.88;;;12.40;99.90;;;;;;5152638;27;20055;-70
2022/11/08 02:08:19;;;;;;;7.47;1.67;;;12.40;99.90;;;;;;5152871;27;20082;-70
2022/11/08 02:10:48;;;;;;;4.40;1.50;;;12.40;99.90;;;;;;5134397;27;20467;-70
2022/11/08 02:13:18;;;;;;;2.92;1.40;;;12.40;99.90;;;;;;5153242;27;20085;-70
2022/11/08 02:15:45;;;;;;;6.20;1.80;;;12.40;99.90;;;;;;5138313;27;20364;-70
2022/11/08 02:18:11;;;;;;;3.95;1.58;;;12.50;99.90;;;;;;5156844;27;20054;-69
2022/11/08 02:20:43;;;;;;;3.55;1.52;;;12.40;99.90;;;;;;5156923;27;20102;-70
2022/11/08 02:23:12;;;;;;;6.93;1.95;;;12.40;99.90;;;;;;5156595;27;20483;-70
2022/11/08 02:25:37;;;;;;;2.30;1.38;;;12.50;99.90;;;;;;5156586;27;20047;-70
2022/11/08 02:28:03;;;;;;;4.85;1.70;;;12.60;99.90;;;;;;5156513;27;20398;-69
2022/11/08 02:30:36;;;;;;;5.45;1.60;;;12.50;99.90;;;;;;5156627;27;20386;-70
2022/11/08 02:33:16;;;;;;;5.38;2.33;;;12.50;99.90;;;;;;5156139;27;20129;-70
2022/11/08 02:35:45;;;;;;;3.90;1.67;;;12.50;99.90;;;;;;5156723;27;20436;-69
2022/11/08 02:38:11;;;;;;;3.92;1.60;;;12.40;99.90;;;;;;5156688;27;20087;-70
2022/11/08 02:40:54;;;;;;;3.45;1.40;;;12.40;99.90;;;;;;5156384;27;20058;-69
2022/11/08 02:43:21;;;;;;;4.53;1.60;;;12.40;99.90;;;;;;5156475;27;20414;-69
2022/11/08 02:45:48;;;;;;;6.13;1.65;;;12.30;99.90;;;;;;5156399;27;20132;-70
2022/11/08 02:48:14;;;;;;;2.67;1.50;;;12.30;99.90;;;;;;5156366;27;20055;-69
2022/11/08 02:50:40;;;;;;;4.60;1.60;;;12.20;99.90;;;;;;5155896;27;20046;-70
2022/11/08 02:53:06;;;;;;;3.15;1.67;;;12.20;99.90;;;;;;5156005;27;20114;-70
2022/11/08 02:55:33;;;;;;;3.55;1.45;;;12.20;99.90;;;;;;5156335;27;20042;-70
2022/11/08 02:58:00;;;;;;;4.85;1.58;;;12.20;99.90;;;;;;5155554;27;20530;-70
2022/11/08 03:00:26;;;;;;;2.28;1.40;;;12.20;99.90;;;;;;5156128;27;20046;-70
2022/11/08 03:02:55;;;;;;;3.13;1.30;;;12.10;99.90;;;;;;5155618;27;20050;-70
2022/11/08 03:05:23;;;;;;;5.97;1.70;;;12.10;99.90;;;;;;5155612;27;20490;-69
2022/11/08 03:07:49;;;;;;;4.07;1.73;;;12.10;99.90;;;;;;5155278;27;20515;-70
2022/11/08 03:10:16;;;;;;;3.88;1.60;;;12.10;99.90;;;;;;5155933;27;20051;-70
2022/11/08 03:12:42;;;;;;;2.47;1.20;;;12.10;99.90;;;;;;5154884;27;20133;-70
2022/11/08 03:15:10;;;;;;;6.30;1.45;;;12.10;99.90;;;;;;5155711;27;20063;-70
2022/11/08 03:17:35;;;;;;;5.85;1.52;;;12.10;99.90;;;;;;5155662;27;20050;-70
2022/11/08 03:20:01;;;;;;;2.88;1.55;;;12.10;99.90;;;;;;5155731;27;20046;-70
2022/11/08 03:22:27;;;;;;;3.20;1.45;;;12.10;99.90;;;;;;5155408;27;20502;-70
2022/11/08 03:24:53;;;;;;;3.28;1.55;;;12.10;99.90;;;;;;5154774;27;20043;-70
2022/11/08 03:27:19;;;;;;;3.88;1.40;;;12.10;99.90;;;;;;5155369;27;20467;-70
2022/11/08 03:29:45;;;;;;;5.13;1.60;;;12.10;99.90;;;;;;5155330;27;20043;-70
2022/11/08 03:32:11;;;;;;;4.07;1.45;;;12.00;99.90;;;;;;5153689;27;20092;-70
2022/11/08 03:34:37;;;;;;;3.80;1.80;;;12.00;99.90;;;;;;5155050;27;20113;-70
2022/11/08 03:37:07;;;;;;;2.70;1.27;;;12.00;99.90;;;;;;5154939;27;20556;-69
2022/11/08 03:39:33;;;;;;;3.88;1.40;;;11.90;99.90;;;;;;5155386;27;20088;-70
2022/11/08 03:42:03;;;;;;;3.45;1.50;;;11.90;99.90;;;;;;5155130;27;20082;-70
2022/11/08 03:44:30;;;;;;;4.30;1.45;;;11.90;99.90;;;;;;5155426;27;20042;-70
2022/11/08 03:46:56;;;;;;;4.07;1.48;;;11.90;99.90;;;;;;5154872;27;20050;-70
2022/11/08 03:49:22;;;;;;;4.05;1.42;;;11.90;99.90;;;;;;5154680;27;20498;-70
2022/11/08 03:51:48;;;;;;;5.07;1.65;;;11.90;99.90;;;;;;5155022;27;20095;-70
2022/11/08 03:54:14;;;;;;;4.72;1.25;;;11.90;99.90;;;;;;5136567;27;20050;-69
2022/11/08 03:56:39;;;;;;;3.22;1.40;;;12.00;99.90;;;;;;5155098;27;20120;-70
2022/11/08 03:59:05;;;;;;;4.22;1.35;;;11.90;99.90;;;;;;5154638;27;20050;-70
2022/11/08 04:01:31;;;;;;;3.60;1.63;;;11.90;99.90;;;;;;5154517;27;20054;-69
2022/11/08 04:03:57;;;;;;;6.30;1.60;;;11.90;99.90;;;;;;5155008;27;20082;-70
2022/11/08 04:06:22;;;;;;;4.55;1.60;;;11.90;99.90;;;;;;5132829;27;20058;-70
2022/11/08 04:08:48;;;;;;;6.47;1.75;;;11.90;99.90;;;;;;5133962;27;20143;-69
2022/11/08 04:16:43;;;;;;;2.78;1.60;;;12.00;99.90;;;;;;5154670;27;20046;-69
2022/11/08 04:21:53;;;;;;;6.10;2.22;;;11.90;99.90;;;;;;5154516;27;20050;-69
2022/11/08 04:24:20;;;;;;;4.38;1.60;;;11.90;99.90;;;;;;5154414;27;20061;-70
2022/11/08 04:26:45;;;;;;;5.75;1.30;;;11.90;99.90;;;;;;5154402;27;20038;-70
2022/11/08 04:29:12;;;;;;;5.80;1.55;;;11.90;99.90;;;;;;5135316;27;20128;-69
2022/11/08 04:31:37;;;;;;;5.32;1.38;;;11.90;99.90;;;;;;5153038;27;20050;-69
2022/11/08 04:34:03;;;;;;;3.30;1.27;;;11.90;99.90;;;;;;5153259;27;20372;-69
2022/11/08 04:36:29;;;;;;;6.10;1.70;;;11.80;99.90;;;;;;5152100;27;20069;-69
2022/11/08 04:38:54;;;;;;;3.88;1.67;;;11.80;99.90;;;;;;5153059;27;20054;-69
2022/11/08 04:41:22;;;;;;;5.97;1.92;;;11.70;99.90;;;;;;5153655;27;20135;-69
2022/11/08 04:43:50;;;;;;;4.18;1.50;;;11.80;99.90;;;;;;5135353;27;20075;-69
2022/11/08 04:46:19;;;;;;;4.82;1.73;;;11.70;99.90;;;;;;5154070;27;20039;-70
2022/11/08 04:48:45;;;;;;;3.53;1.38;;;11.70;99.90;;;;;;5154008;27;20404;-69
2022/11/08 04:51:13;;;;;;;5.00;1.95;;;11.60;99.90;;;;;;5154019;27;20467;-69
2022/11/08 04:53:39;;;;;;;4.40;2.05;;;11.60;99.90;;;;;;5153743;27;20137;-69
2022/11/08 04:56:13;;;;;;;4.45;1.48;;;11.60;99.90;;;;;;5153734;27;20046;-69
2022/11/08 04:58:42;;;;;;;3.83;1.40;;;11.60;99.90;;;;;;5153667;27;20046;-69
2022/11/08 05:01:10;;;;;;;3.90;1.38;;;11.60;99.90;;;;;;5153012;27;20058;-69
2022/11/08 05:03:36;;;;;;;3.42;2.20;;;11.50;99.90;;;;;;5153721;27;20122;-69
2022/11/08 05:06:09;;;;;;;3.13;1.42;;;11.50;99.90;;;;;;5153553;27;20538;-69
2022/11/08 05:08:34;;;;;;;3.72;1.80;;;11.50;99.90;;;;;;5153779;27;20082;-69
2022/11/08 05:11:15;;;;;;;4.85;1.52;;;11.50;99.90;;;;;;5153248;27;20439;-69
2022/11/08 05:13:40;;;;;;;4.93;1.90;;;11.50;99.90;;;;;;5152771;27;20050;-69
2022/11/08 05:16:12;;;;;;;3.85;1.40;;;11.50;99.90;;;;;;5153225;27;20096;-69
2022/11/08 05:18:38;;;;;;;2.65;1.60;;;11.50;99.90;;;;;;5153158;27;20107;-69
2022/11/08 05:23:49;;;;;;;4.10;1.55;;;11.50;99.90;;;;;;5153205;27;20058;-70
2022/11/08 05:26:16;;;;;;;4.03;1.70;;;11.50;99.90;;;;;;5153236;27;20138;-69
2022/11/08 05:28:42;;;;;;;3.50;1.45;;;11.50;99.90;;;;;;5134591;27;20039;-69
2022/11/08 05:31:08;;;;;;;4.13;2.05;;;11.50;99.90;;;;;;5152735;27;20057;-69
2022/11/08 05:33:34;;;;;;;3.80;1.50;;;11.50;99.90;;;;;;5153312;27;20046;-69
2022/11/08 05:36:04;;;;;;;2.83;1.52;;;11.50;99.90;;;;;;5153192;27;20087;-69
2022/11/08 05:38:30;;;;;;;2.67;1.40;;;11.50;99.90;;;;;;5134778;27;20137;-69
2022/11/08 05:41:15;;;;;;;3.05;1.42;;;11.50;99.90;;;;;;5152875;27;20118;-69
2022/11/08 05:43:41;;;;;;;4.93;1.80;;;11.50;99.90;;;;;;5152913;27;20050;-69
2022/11/08 05:46:07;;;;;;;3.33;1.55;;;11.40;99.90;;;;;;5152962;27;20042;-69
2022/11/08 05:48:33;;;;;;;3.65;1.83;;;11.50;99.90;;;;;;5152755;27;20080;-70
2022/11/08 05:51:00;;;;;;;3.30;2.00;;;11.40;99.90;;;;;;5152937;27;20078;-69
2022/11/08 05:53:26;;;;;;;3.60;1.70;;;11.50;99.90;;;;;;5152812;27;20045;-69
2022/11/08 05:56:00;;;;;;;5.03;2.13;;;11.40;99.90;;;;;;5152910;27;20121;-69
2022/11/08 05:58:26;;;;;;;3.85;1.45;;;11.40;99.90;;;;;;5134165;27;20479;-69
2022/11/08 06:01:19;;;;;;;3.67;1.90;;;11.40;99.90;;;;;;5134130;27;20061;-69
2022/11/08 06:03:46;;;;;;;6.18;2.55;;;11.40;99.90;;;;;;5148379;27;20050;-70
2022/11/08 06:06:19;;;;;;;5.53;2.50;;;11.30;99.90;;;;;;5134336;27;20057;-69
2022/11/08 06:08:45;;;;;;;5.10;2.80;;;11.30;99.90;;;;;;5152351;27;20043;-69
2022/11/08 06:11:20;;;;;;;4.03;1.90;;;11.30;99.90;;;;;;5152639;27;20091;-70
2022/11/08 06:13:46;;;;;;;4.70;1.90;;;11.30;99.90;;;;;;5152153;27;20059;-69
2022/11/08 06:16:13;;;;;;;4.50;1.77;;;11.30;99.90;;;;;;5152697;27;20050;-69
2022/11/08 06:18:40;;;;;;;5.45;2.10;;;11.20;99.90;;;;;;5152327;27;20050;-70
2022/11/08 06:21:09;;;;;;;3.60;1.77;;;11.20;99.90;;;;;;5152583;27;20104;-70
2022/11/08 06:23:35;;;;;;;5.05;2.15;;;11.10;99.90;;;;;;5152487;27;20074;-69
2022/11/08 06:26:01;;;;;;;4.50;1.60;;;11.00;99.90;;;;;;5152361;27;20446;-70
2022/11/08 06:28:27;;;;;;;4.00;2.00;;;10.90;99.90;;;;;;5133733;27;20130;-70
2022/11/08 06:30:53;;;;;;;2.88;1.60;;;11.00;99.90;;;;;;5152555;27;20123;-70
2022/11/08 06:33:19;;;;;;;4.53;1.73;;;11.00;99.90;;;;;;5152173;27;20050;-69
2022/11/08 06:35:45;;;;;;;4.07;1.80;;;11.00;99.90;;;;;;5152218;27;20316;-70
2022/11/08 06:38:11;;;;;;;4.07;1.77;;;11.00;99.90;;;;;;5151972;27;20106;-69
2022/11/08 06:40:38;;;;;;;3.63;1.60;;;11.00;99.90;;;;;;5133270;27;20051;-69
2022/11/08 06:43:04;;;;;;;3.58;2.00;;;11.00;99.90;;;;;;5151887;27;20102;-69
2022/11/08 06:45:30;;;;;;;3.67;1.80;;;11.00;99.90;;;;;;5152399;27;20043;-69
2022/11/08 06:47:57;;;;;;;4.32;1.65;;;11.00;99.90;;;;;;5152028;27;20057;-69
2022/11/08 06:50:24;;;;;;;3.70;1.48;;;11.00;99.90;;;;;;5152329;27;20042;-69
2022/11/08 06:52:57;;;;;;;5.65;1.88;;;11.00;99.90;;;;;;5152358;27;20505;-69
2022/11/08 06:55:23;;;;;;;4.47;1.40;;;11.10;99.90;;;;;;5133746;27;20050;-69
2022/11/08 06:57:48;;;;;;;5.45;1.83;;;11.10;99.90;;;;;;5116365;27;20039;-69
2022/11/08 07:00:15;;;;;;;4.38;1.60;;;11.10;99.90;;;;;;5154361;27;20054;-69
2022/11/08 07:02:43;;;;;;;4.22;1.58;;;11.10;99.90;;;;;;5136940;27;20512;-69
2022/11/08 07:05:09;;;;;;;5.22;1.48;;;11.10;99.90;;;;;;5137453;27;20093;-69
2022/11/08 07:07:35;;;;;;;4.47;1.40;;;11.10;99.90;;;;;;5155798;27;20153;-70
2022/11/08 07:10:00;;;;;;;4.35;1.63;;;11.20;99.90;;;;;;5155843;27;20130;-69
2022/11/08 07:12:26;;;;;;;3.80;1.30;;;11.20;99.90;;;;;;5155624;27;20166;-69
2022/11/08 07:14:51;;;;;;;4.45;1.50;;;11.20;99.90;;;;;;5155712;27;20407;-63
2022/11/08 07:17:17;;;;;;;5.55;1.65;;;11.30;99.90;;;;;;5155450;27;20073;-63
2022/11/08 07:19:43;;;;;;;2.92;1.40;;;11.30;99.90;;;;;;5137435;27;20042;-63
2022/11/08 07:22:09;;;;;;;4.18;1.50;;;11.30;99.90;;;;;;5155651;27;20046;-63
2022/11/08 07:24:34;;;;;;;3.63;1.55;;;11.30;99.90;;;;;;5136951;27;20370;-63
2022/11/08 07:27:00;;;;;;;3.42;1.40;;;11.30;99.90;;;;;;5155460;27;20042;-63
2022/11/08 07:29:26;;;;;;;4.03;1.27;;;11.30;99.90;;;;;;5154938;27;20531;-63
2022/11/08 07:31:51;;;;;;;2.08;1.17;;;11.30;99.90;;;;;;5154826;27;20042;-63
2022/11/08 07:34:17;;;;;;;5.43;1.83;;;11.40;99.90;;;;;;5155008;27;20130;-63
2022/11/08 07:36:43;;;;;;;2.85;1.45;;;11.40;99.90;;;;;;5155039;27;20198;-63
2022/11/08 07:39:08;;;;;;;2.83;1.45;;;11.40;99.90;;;;;;5155266;27;20075;-63
2022/11/08 07:41:34;;;;;;;2.38;1.33;;;11.40;99.90;;;;;;5155025;27;20047;-63
2022/11/08 07:44:00;;;;;;;4.47;1.60;;;11.40;99.90;;;;;;5155069;27;20466;-63
2022/11/08 07:46:25;;;;;;;3.35;1.42;;;11.40;99.90;;;;;;5155149;27;20047;-63
2022/11/08 07:48:51;;;;;;;3.20;1.13;;;11.50;99.90;;;;;;5155272;27;20053;-63
2022/11/08 07:51:17;;;;;;;3.97;1.38;;;11.50;99.90;;;;;;5154963;27;20475;-63
2022/11/08 07:53:43;;;;;;;2.95;1.25;;;11.50;99.90;;;;;;5155056;27;20043;-63
2022/11/08 07:56:09;;;;;;;3.05;1.38;;;11.50;99.90;;;;;;5154973;27;20407;-63
2022/11/08 07:58:35;;;;;;;3.75;1.30;;;11.50;99.90;;;;;;5154943;27;20034;-63
2022/11/08 08:01:02;;;;;;;3.20;1.52;;;11.50;99.90;;;;;;5136313;27;20443;-63
2022/11/08 08:03:28;;;;;;;3.30;1.50;;;11.50;99.90;;;;;;5135032;27;20133;-63
2022/11/08 08:05:53;;;;;;;3.40;1.98;;;11.50;99.90;;;;;;5154601;27;20188;-63
2022/11/08 08:08:19;;;;;;;2.97;1.45;;;11.60;99.90;;;;;;5154539;27;20046;-63
2022/11/08 08:10:45;;;;;;;3.28;1.20;;;11.60;99.90;;;;;;5154470;27;20047;-63
2022/11/08 08:13:11;;;;;;;4.45;1.45;;;11.60;99.90;;;;;;5154205;27;20299;-63
2022/11/08 08:15:37;;;;;;;6.28;1.45;;;11.70;99.90;;;;;;5142712;27;20050;-71
2022/11/08 08:18:04;;;;;;;3.30;1.20;;;11.70;99.90;;;;;;5140745;27;20042;-71
2022/11/08 08:20:30;;;;;;;3.15;1.40;;;11.70;99.90;;;;;;5153712;27;20054;-71
2022/11/08 08:22:56;;;;;;;2.75;1.20;;;11.80;99.90;;;;;;5135722;27;20042;-69
2022/11/08 08:25:22;;;;;;;3.80;1.23;;;11.90;99.90;;;;;;5147487;27;20053;-69
2022/11/08 08:27:50;;;;;;;1.88;1.00;;;11.90;99.90;;;;;;5153566;27;20042;-69
2022/11/08 08:30:16;;;;;;;2.85;1.05;;;12.00;99.90;;;;;;5153402;27;20080;-70
2022/11/08 08:32:43;;;;;;;3.65;1.30;;;12.00;99.90;;;;;;5153423;27;20047;-69
2022/11/08 08:35:09;;;;;;;2.72;1.15;;;12.10;99.90;;;;;;5154093;27;20402;-69
2022/11/08 08:37:34;;;;;;;2.67;1.30;;;12.20;99.90;;;;;;5153245;27;20042;-75
2022/11/08 08:40:00;;;;;;;3.17;1.30;;;12.20;99.90;;;;;;5117830;27;20042;-70
2022/11/08 08:42:26;;;;;;;2.92;1.35;;;12.30;99.90;;;;;;5118346;27;20179;-70
2022/11/08 08:44:51;;;;;;;3.83;1.10;;;12.40;99.90;;;;;;5135473;27;20050;-70
2022/11/08 08:47:17;;;;;;;3.83;1.48;;;12.40;99.90;;;;;;5153873;27;20138;-70
2022/11/08 08:49:43;;;;;;;1.63;1.00;;;12.40;99.90;;;;;;5153800;27;20054;-70
2022/11/08 08:52:08;;;;;;;2.35;1.00;;;12.50;99.90;;;;;;5153983;27;20104;-70
2022/11/08 08:54:34;;;;;;;2.00;1.00;;;12.40;99.90;;;;;;5154109;27;20049;-70
2022/11/08 08:57:00;;;;;;;2.75;1.02;;;12.50;99.90;;;;;;5154035;27;20043;-70
2022/11/08 08:59:27;;;;;;;2.35;1.20;;;12.60;99.90;;;;;;5153389;27;20038;-70
2022/11/08 09:01:52;;;;;;;3.20;1.25;;;12.60;99.90;;;;;;5152780;27;20411;-70
2022/11/08 09:04:18;;;;;;;3.70;1.20;;;12.60;99.90;;;;;;5153752;27;20051;-70
2022/11/08 09:06:45;;;;;;;2.60;1.00;;;12.70;99.90;;;;;;5152964;27;20095;-70
2022/11/08 09:09:11;;;;;;;3.25;1.25;;;12.70;99.90;;;;;;5153065;27;20050;-70
2022/11/08 09:11:36;;;;;;;3.08;1.00;;;12.70;99.90;;;;;;5153215;27;20554;-71
2022/11/08 09:14:02;;;;;;;2.20;1.10;;;12.80;99.90;;;;;;5153071;27;20563;-71
2022/11/08 09:16:28;;;;;;;2.70;1.10;;;12.90;99.90;;;;;;5153070;27;20054;-71
2022/11/08 09:18:54;;;;;;;3.60;1.40;;;13.00;99.90;;;;;;5133496;27;20523;-69
2022/11/08 09:21:19;;;;;;;2.92;1.10;;;13.10;99.90;;;;;;5153066;27;20101;-69
2022/11/08 09:23:45;;;;;;;2.20;1.05;;;13.20;99.90;;;;;;5134078;27;20050;-70
2022/11/08 09:26:11;;;;;;;2.85;1.20;;;13.30;99.90;;;;;;5152939;27;20046;-70
2022/11/08 09:28:37;;;;;;;3.33;1.20;;;13.40;99.90;;;;;;5152936;27;20097;-71
2022/11/08 09:31:10;;;;;;;2.15;1.00;;;13.40;99.90;;;;;;5134298;27;20089;-63
2022/11/08 09:33:38;;;;;;;2.47;1.17;;;13.40;99.90;;;;;;5152328;27;20096;-64
2022/11/08 09:36:05;;;;;;;2.50;1.00;;;13.40;99.90;;;;;;5152738;27;20048;-63
2022/11/08 09:38:31;;;;;;;1.98;1.00;;;13.50;99.90;;;;;;5134587;27;20086;-64
2022/11/08 09:41:17;;;;;;;2.75;1.17;;;13.60;99.90;;;;;;5152585;27;20073;-64
2022/11/08 09:43:51;;;;;;;;;;;13.80;99.90;;;;;;5152346;27;20078;-63
2022/11/08 09:46:43;;;;;;;3.97;1.05;;;13.90;99.90;;;;;;5152131;27;19935;-64
2022/11/08 09:49:18;;;;;;;2.15;1.10;;;14.00;99.90;;;;;;5138173;27;20050;-63
2022/11/08 09:51:44;;;;;;;3.63;1.17;;;14.10;99.90;;;;;;5151564;27;20043;-63
2022/11/08 09:54:18;;;;;;;3.00;1.15;;;14.40;99.90;;;;;;5152443;27;20055;-64
2022/11/08 09:56:46;;;;;;;2.72;1.00;;;14.50;99.90;;;;;;5152806;27;20557;-63
2022/11/08 09:59:28;;;;;;;2.03;1.00;;;14.50;99.90;;;;;;5152374;27;20043;-64
2022/11/08 10:01:54;;;;;;;2.22;1.05;;;14.40;99.90;;;;;;5152205;27;20099;-64
2022/11/08 10:04:23;;;;;;;2.60;1.23;;;14.30;99.90;;;;;;5117137;27;20058;-64
2022/11/08 10:07:12;;;;;;;4.07;0.80;;;14.30;99.90;;;;;;5151907;27;20483;-64
2022/11/08 10:09:59;;;;;;;3.70;1.10;;;14.20;99.90;;;;;;5152461;27;20047;-65
2022/11/08 10:12:52;;;;;;;2.38;0.90;;;14.30;99.90;;;;;;5152286;27;20089;-65
2022/11/08 10:15:31;;;;;;;1.70;0.93;;;14.30;99.90;;;;;;5152682;27;20054;-64
2022/11/08 10:18:26;;;;;;;2.75;1.00;;;14.30;99.90;;;;;;5152350;27;20463;-65
2022/11/08 10:21:04;;;;;;;3.65;1.27;;;14.40;99.90;;;;;;5151608;27;20533;-65
2022/11/08 10:23:41;;;;;;;2.72;1.05;;;14.40;99.90;;;;;;5152392;27;20394;-65
2022/11/08 10:26:19;;;;;;;1.80;1.00;;;14.40;99.90;;;;;;5151912;27;20054;-64
2022/11/08 10:28:52;;;;;;;2.35;1.00;;;14.40;99.90;;;;;;5150455;27;20038;-64
2022/11/08 10:31:19;;;;;;;2.40;1.05;;;14.50;99.90;;;;;;5151734;27;20053;-64
2022/11/08 10:33:56;;;;;;;3.83;1.23;;;14.50;99.90;;;;;;5151568;27;20066;-65
2022/11/08 10:36:26;;;;;;;2.08;1.00;;;14.40;99.90;;;;;;5156405;27;20106;-64
2022/11/08 10:39:07;;;;;;;2.20;0.88;;;14.30;99.90;;;;;;5156372;27;20754;-64
2022/11/08 10:41:57;;;;;;;2.75;1.00;;;14.30;99.90;;;;;;5156091;27;20452;-64
2022/11/08 10:44:24;;;;;;;2.00;1.00;;;14.40;99.90;;;;;;5155728;27;20399;-71
2022/11/08 10:46:56;;;;;;;3.42;1.10;;;14.40;99.90;;;;;;5156076;27;20043;-72
2022/11/08 10:49:26;;;;;;;5.40;1.30;;;14.40;99.90;;;;;;5156108;27;20047;-71
2022/11/08 10:51:55;;;;;;;2.90;1.20;;;14.30;99.90;;;;;;5156054;27;20043;-71
2022/11/08 10:54:45;;;;;;;3.92;1.02;;;14.30;99.90;;;;;;5155927;27;20458;-72
2022/11/08 10:57:24;;;;;;;2.22;1.10;;;14.40;99.90;;;;;;5155809;27;20061;-72
2022/11/08 10:59:51;;;;;;;2.47;1.30;;;14.40;99.90;;;;;;5155709;27;20042;-72
2022/11/08 11:02:18;;;;;;;2.20;1.02;;;14.40;99.90;;;;;;5155316;27;20092;-72
2022/11/08 11:04:44;;;;;;;3.10;1.23;;;14.40;99.90;;;;;;5137245;27;20464;-71
2022/11/08 11:07:33;;;;;;;2.42;1.10;;;14.30;99.90;;;;;;5146229;27;20051;-72
2022/11/08 11:10:21;;;;;;;3.17;1.02;;;14.30;99.90;;;;;;5151706;27;20074;-69
2022/11/08 11:13:11;;;;;;;2.15;1.05;;;14.40;99.90;;;;;;5155265;27;20054;-71
2022/11/08 11:16:04;;;;;;;2.45;1.05;;;14.40;99.90;;;;;;5155159;27;20399;-71
2022/11/08 11:18:45;;;;;;;2.10;1.00;;;14.40;99.90;;;;;;5150308;27;20062;-72
2022/11/08 11:21:16;;;;;;;4.03;1.02;;;14.40;99.90;;;;;;5154948;27;20431;-72
2022/11/08 11:24:06;;;;;;;2.72;1.10;;;14.40;99.90;;;;;;5155329;27;20091;-72
2022/11/08 11:26:34;;;;;;;1.88;1.00;;;14.40;99.90;;;;;;5155354;27;20046;-73
2022/11/08 11:29:05;;;;;;;3.08;1.27;;;14.40;99.90;;;;;;5154559;27;20045;-71
2022/11/08 11:31:35;;;;;;;3.08;1.10;;;14.50;99.90;;;;;;5155243;27;20151;-71
2022/11/08 11:34:16;;;;;;;2.42;1.00;;;14.50;99.90;;;;;;5155397;27;20406;-71
2022/11/08 11:37:02;;;;;;;2.70;1.20;;;14.40;99.90;;;;;;5154762;27;20043;-70
2022/11/08 11:39:48;;;;;;;2.92;0.80;;;14.50;99.90;;;;;;5154817;27;20055;-71
2022/11/08 11:42:17;;;;;;;1.92;0.90;;;14.60;99.90;;;;;;5154988;27;20042;-71
2022/11/08 11:44:58;;;;;;;2.17;1.17;;;14.60;99.90;;;;;;5135744;27;20483;-73
2022/11/08 11:47:49;;;;;;;1.75;1.05;;;14.70;99.90;;;;;;5154778;27;20038;-71
2022/11/08 11:50:37;;;;;;;2.55;1.20;;;14.70;99.90;;;;;;5154717;27;20086;-64
2022/11/08 11:53:17;;;;;;;2.20;1.10;;;14.70;99.90;;;;;;5154553;27;20089;-65
2022/11/08 11:56:05;;;;;;;3.10;1.10;;;14.70;99.90;;;;;;5154956;27;20051;-64
2022/11/08 11:58:33;;;;;;;2.58;1.00;;;14.70;99.90;;;;;;5135496;27;20114;-65
2022/11/08 12:01:19;;;;;;;2.55;1.05;;;14.70;99.90;;;;;;5155105;27;20051;-64
2022/11/08 12:04:10;;;;;;;2.55;1.00;;;14.70;99.90;;;;;;5133549;27;20043;-65
2022/11/08 12:06:58;;;;;;;2.08;1.10;;;14.70;99.90;;;;;;5100617;27;20051;-65
2022/11/08 12:09:33;;;;;;;3.08;1.10;;;14.70;99.90;;;;;;5133593;27;20047;-64
2022/11/08 12:12:30;;;;;;;2.30;1.17;;;14.70;99.90;;;;;;5139207;27;20058;-64
2022/11/08 12:15:09;;;;;;;3.15;1.10;;;14.60;99.90;;;;;;5154274;27;20058;-64
2022/11/08 12:18:02;;;;;;;3.75;1.02;;;14.70;99.90;;;;;;5136086;27;20406;-65
2022/11/08 12:20:58;;;;;;;4.50;1.25;;;14.70;99.90;;;;;;5154053;27;20154;-65
2022/11/08 12:23:33;;;;;;;2.90;1.20;;;14.70;99.90;;;;;;5135974;27;20043;-71
2022/11/08 12:26:08;;;;;;;1.77;0.98;;;14.80;99.90;;;;;;5154283;27;20061;-72
2022/11/08 12:28:50;;;;;;;2.50;0.98;;;14.80;99.90;;;;;;5153572;27;20098;-71
2022/11/08 12:31:16;;;;;;;2.33;1.23;;;14.80;99.90;;;;;;5135459;27;20057;-70
2022/11/08 12:33:45;;;;;;;2.47;1.00;;;14.90;99.90;;;;;;5153732;27;20129;-72
2022/11/08 12:36:27;;;;;;;2.55;1.30;;;14.90;99.90;;;;;;5153747;27;20043;-71
2022/11/08 12:39:11;;;;;;;3.17;1.10;;;14.90;99.90;;;;;;5153754;27;20149;-71
2022/11/08 12:41:59;;;;;;;2.75;1.20;;;14.90;99.90;;;;;;5153813;27;20046;-71
2022/11/08 12:44:36;;;;;;;1.88;1.02;;;14.80;99.90;;;;;;5153597;27;20034;-71
2022/11/08 12:47:32;;;;;;;1.95;1.17;;;14.80;99.90;;;;;;5153811;27;20435;-71
2022/11/08 12:50:26;;;;;;;2.77;1.10;;;14.80;99.90;;;;;;5153758;27;20050;-71
2022/11/08 12:53:20;;;;;;;3.35;1.00;;;14.80;99.90;;;;;;5153747;27;20284;-70
2022/11/08 12:55:48;;;;;;;2.15;1.30;;;14.70;99.90;;;;;;5153660;27;20155;-70
2022/11/08 12:58:43;;;;;;;2.90;1.08;;;14.70;99.90;;;;;;5133720;27;20519;-70
2022/11/08 13:01:14;;;;;;;2.35;1.08;;;14.70;99.90;;;;;;5135033;27;20084;-69
2022/11/08 13:04:03;;;;;;;2.50;1.10;;;14.80;99.90;;;;;;5132453;27;20126;-70
2022/11/08 13:06:55;;;;;;;2.63;1.10;;;14.80;99.90;;;;;;5132385;27;20043;-70
2022/11/08 13:09:49;;;;;;;1.98;1.08;;;14.80;99.90;;;;;;5132477;27;20046;-71
2022/11/08 13:12:40;;;;;;;2.55;1.20;;;14.90;99.90;;;;;;5140081;27;20080;-71
2022/11/08 13:15:19;;;;;;;4.55;1.00;;;15.00;99.90;;;;;;5153203;27;20165;-73
2022/11/08 13:18:21;;;;;;;2.42;1.08;;;15.10;99.90;;;;;;5134503;27;20054;-70
2022/11/08 13:20:48;;;;;;;2.47;1.13;;;15.10;99.90;;;;;;5152813;27;20051;-70
2022/11/08 13:23:26;;;;;;;3.00;1.05;;;15.10;99.90;;;;;;5134686;27;20043;-70
2022/11/08 13:26:09;;;;;;;2.55;1.10;;;15.10;99.90;;;;;;5153009;27;20066;-71
2022/11/08 13:28:34;;;;;;;2.40;1.00;;;15.10;99.90;;;;;;5134009;27;20099;-70